createdAt,value
2019-02-16T00:00:48.255Z,5.63
2019-02-16T00:05:51.692Z,5.43
2019-02-16T00:10:55.114Z,6.30
2019-02-16T00:15:58.538Z,6.40
2019-02-16T00:21:04.224Z,6.17
2019-02-16T00:26:07.134Z,5.43
2019-02-16T00:31:10.546Z,6.50
2019-02-16T00:36:13.951Z,6.33
2019-02-16T00:41:17.360Z,6.30
2019-02-16T00:46:20.784Z,5.10
2019-02-16T00:51:24.211Z,5.50
2019-02-16T00:56:27.749Z,6.67
2019-02-16T01:01:31.194Z,6.13
2019-02-16T01:06:34.627Z,6.13
2019-02-16T01:11:38.023Z,6.00
2019-02-16T01:16:41.450Z,6.43
2019-02-16T01:21:44.922Z,6.57
2019-02-16T01:26:48.351Z,7.97
2019-02-16T01:31:51.824Z,6.67
2019-02-16T01:36:55.281Z,6.07
2019-02-16T01:41:58.745Z,6.70
2019-02-16T01:47:02.150Z,7.17
2019-02-16T01:52:05.597Z,7.07
2019-02-16T01:57:09.041Z,6.77
2019-02-16T02:02:12.492Z,7.00
2019-02-16T02:07:15.936Z,7.00
2019-02-16T02:12:19.611Z,6.50
2019-02-16T02:17:23.046Z,7.13
2019-02-16T02:22:26.506Z,7.00
2019-02-16T02:27:29.950Z,6.20
2019-02-16T02:32:33.387Z,7.17
2019-02-16T02:37:36.818Z,6.27
2019-02-16T02:42:40.291Z,8.43
2019-02-16T02:47:43.754Z,8.93
2019-02-16T02:52:47.208Z,9.00
2019-02-16T02:57:50.652Z,7.90
2019-02-16T03:02:54.119Z,6.63
2019-02-16T03:07:57.553Z,7.73
2019-02-16T03:13:00.992Z,8.13
2019-02-16T03:18:04.440Z,9.70
2019-02-16T03:23:11.210Z,12.60
2019-02-16T03:28:17.733Z,10.77
2019-02-16T03:33:27.194Z,11.60
2019-02-16T03:38:48.874Z,10.87
2019-02-16T03:43:52.331Z,11.53
2019-02-16T03:48:55.771Z,11.73
2019-02-16T03:53:59.247Z,17.47
2019-02-16T03:59:02.687Z,12.97
2019-02-16T04:04:06.150Z,13.27
2019-02-16T04:09:09.614Z,11.70
2019-02-16T04:14:13.066Z,11.13
2019-02-16T04:19:16.511Z,12.07
2019-02-16T04:24:19.951Z,12.47
2019-02-16T04:29:23.541Z,12.43
2019-02-16T04:34:26.939Z,12.67
2019-02-16T04:39:30.373Z,14.30
2019-02-16T04:44:33.785Z,13.77
2019-02-16T04:49:37.202Z,13.37
2019-02-16T04:54:40.637Z,12.73
2019-02-16T04:59:44.076Z,11.53
2019-02-16T05:04:47.488Z,11.90
2019-02-16T05:09:50.913Z,12.53
2019-02-16T05:14:54.340Z,12.97
2019-02-16T05:19:57.776Z,13.43
2019-02-16T05:25:01.227Z,13.67
2019-02-16T05:30:07.569Z,12.53
2019-02-16T05:35:11.005Z,11.17
2019-02-16T05:40:14.434Z,11.77
2019-02-16T05:45:17.844Z,10.93
2019-02-16T05:50:21.292Z,11.10
2019-02-16T05:55:24.715Z,11.70
2019-02-16T06:00:29.804Z,9.83
2019-02-16T06:05:33.218Z,10.40
2019-02-16T06:10:36.650Z,10.97
2019-02-16T06:15:40.065Z,10.43
2019-02-16T06:20:43.487Z,9.70
2019-02-16T06:25:47.211Z,10.27
2019-02-16T06:30:50.586Z,10.73
2019-02-16T06:35:55.647Z,9.10
2019-02-16T06:40:59.048Z,9.73
2019-02-16T06:46:02.487Z,9.50
2019-02-16T06:51:05.912Z,9.53
2019-02-16T06:56:10.987Z,9.87
2019-02-16T07:01:14.404Z,9.63
2019-02-16T07:06:17.818Z,8.50
2019-02-16T07:11:21.250Z,8.27
2019-02-16T07:16:32.293Z,9.33
2019-02-16T07:21:35.712Z,10.63
2019-02-16T07:26:39.140Z,8.93
2019-02-16T07:31:42.547Z,9.50
2019-02-16T07:36:45.967Z,9.40
2019-02-16T07:41:49.378Z,8.20
2019-02-16T07:46:54.425Z,8.67
2019-02-16T07:51:59.496Z,9.80
2019-02-16T07:57:20.736Z,9.87
2019-02-16T08:02:28.424Z,9.57
2019-02-16T08:07:50.971Z,9.40
2019-02-16T08:13:02.053Z,9.87
2019-02-16T08:18:12.853Z,9.50
2019-02-16T08:23:17.918Z,10.17
2019-02-16T08:28:22.967Z,10.10
2019-02-16T08:38:49.697Z,13.70
2019-02-16T08:44:09.737Z,15.03
2019-02-16T08:49:23.808Z,16.67
2019-02-16T08:54:28.889Z,9.73
2019-02-16T08:59:33.947Z,9.83
2019-02-16T09:10:08.199Z,9.83
2019-02-16T09:15:16.220Z,8.43
2019-02-16T09:20:26.856Z,8.10
2019-02-16T09:25:31.913Z,8.20
2019-02-16T09:30:36.992Z,8.67
2019-02-16T09:35:50.697Z,6.13
2019-02-16T09:46:31.318Z,5.53
2019-02-16T09:51:42.203Z,5.90
2019-02-16T09:56:47.264Z,5.37
2019-02-16T10:02:07.589Z,4.77
2019-02-16T10:07:27.697Z,5.63
2019-02-16T10:12:38.816Z,6.20
2019-02-16T10:17:49.411Z,6.10
2019-02-16T10:22:54.487Z,5.97
2019-02-16T10:27:59.547Z,5.60
2019-02-16T10:33:13.525Z,6.30
2019-02-16T10:38:34.787Z,5.30
2019-02-16T10:43:48.482Z,6.70
2019-02-16T10:48:58.968Z,6.87
2019-02-16T10:54:04.068Z,8.07
2019-02-16T10:59:09.133Z,10.50
2019-02-16T11:04:38.333Z,9.73
2019-02-16T11:09:42.007Z,10.63
2019-02-16T11:14:56.096Z,12.77
2019-02-16T11:20:16.265Z,9.93
2019-02-16T11:25:36.332Z,9.17
2019-02-16T11:30:41.389Z,9.33
2019-02-16T11:35:52.334Z,10.13
2019-02-16T11:41:06.133Z,11.07
2019-02-16T11:46:22.814Z,12.00
2019-02-16T11:51:27.900Z,10.47
2019-02-16T11:56:32.952Z,11.13
2019-02-16T12:01:54.229Z,8.90
2019-02-16T12:06:59.294Z,9.27
2019-02-16T12:12:07.333Z,8.77
2019-02-16T12:17:17.968Z,10.60
2019-02-16T12:22:28.995Z,10.50
2019-02-16T12:27:36.533Z,10.87
2019-02-16T12:32:53.563Z,10.60
2019-02-16T12:38:10.151Z,18.03
2019-02-16T12:43:24.350Z,12.47
2019-02-16T12:48:29.427Z,10.03
2019-02-16T12:53:50.750Z,11.30
2019-02-16T12:59:04.423Z,9.73
2019-02-16T13:04:15.344Z,9.17
2019-02-16T13:09:20.455Z,10.30
2019-02-16T13:14:41.727Z,8.73
2019-02-16T13:19:49.722Z,8.97
2019-02-16T13:24:57.556Z,13.60
2019-02-16T13:30:16.323Z,10.10
2019-02-16T13:35:24.328Z,9.77
2019-02-16T13:40:38.307Z,11.13
2019-02-16T13:45:59.633Z,10.10
2019-02-16T13:51:07.504Z,9.10
2019-02-16T13:56:29.051Z,10.03
2019-02-16T14:01:42.874Z,10.30
2019-02-16T14:06:50.341Z,9.30
2019-02-16T14:11:55.394Z,9.27
2019-02-16T14:17:00.513Z,10.07
2019-02-16T14:22:03.949Z,10.00
2019-02-16T14:27:07.380Z,10.63
2019-02-16T14:32:10.910Z,10.10
2019-02-16T14:37:18.453Z,8.50
2019-02-16T14:42:21.873Z,10.63
2019-02-16T14:47:25.301Z,11.40
2019-02-16T14:52:28.803Z,11.37
2019-02-16T14:57:32.234Z,13.70
2019-02-16T15:02:35.675Z,11.63
2019-02-16T15:07:39.140Z,11.70
2019-02-16T15:12:42.560Z,13.03
2019-02-16T15:17:46.005Z,12.93
2019-02-16T15:22:49.418Z,10.73
2019-02-16T15:27:52.857Z,11.20
2019-02-16T15:32:56.278Z,10.27
2019-02-16T15:37:59.709Z,10.30
2019-02-16T15:43:03.159Z,10.50
2019-02-16T15:48:06.576Z,13.33
2019-02-16T15:53:10.013Z,38.43
2019-02-16T15:58:13.481Z,23.63
2019-02-16T16:03:16.872Z,14.90
2019-02-16T16:13:51.590Z,12.23
2019-02-16T16:18:56.667Z,28.23
2019-02-16T16:24:19.915Z,41.50
2019-02-16T16:29:28.028Z,16.80
2019-02-16T16:34:35.904Z,17.17
2019-02-16T16:39:43.693Z,14.50
2019-02-16T16:44:54.594Z,11.73
2019-02-16T16:49:59.767Z,10.40
2019-02-16T16:55:07.495Z,13.17
2019-02-16T17:00:24.377Z,19.40
2019-02-16T17:05:29.537Z,13.70
2019-02-16T17:11:01.522Z,14.37
2019-02-16T17:16:06.573Z,12.73
2019-02-16T17:21:14.095Z,9.80
2019-02-16T17:26:37.879Z,11.83
2019-02-16T17:31:52.917Z,10.20
2019-02-16T17:37:00.959Z,10.43
2019-02-16T17:42:14.950Z,9.93
2019-02-16T17:47:32.090Z,10.90
2019-02-16T17:52:53.147Z,11.37
2019-02-16T17:58:01.011Z,9.87
2019-02-16T18:03:15.439Z,11.70
2019-02-16T18:08:20.514Z,12.37
2019-02-16T18:13:41.792Z,11.67
2019-02-16T18:18:52.814Z,11.47
2019-02-16T18:24:06.652Z,11.63
2019-02-16T18:29:23.920Z,10.70
2019-02-16T18:34:34.723Z,11.90
2019-02-16T18:39:55.793Z,11.83
2019-02-16T18:45:00.890Z,12.40
2019-02-16T18:50:06.372Z,10.33
2019-02-16T18:55:11.548Z,10.80
2019-02-16T19:00:25.335Z,11.37
2019-02-16T19:05:30.407Z,10.97
2019-02-16T19:10:53.398Z,11.20
2019-02-16T19:16:13.443Z,13.80
2019-02-16T19:21:18.511Z,13.13
2019-02-16T19:26:23.730Z,14.30
2019-02-16T19:31:40.449Z,13.87
2019-02-16T19:37:01.945Z,12.97
2019-02-16T19:42:22.103Z,14.57
2019-02-16T19:47:29.756Z,12.80
2019-02-16T19:52:43.919Z,13.67
2019-02-16T19:57:48.978Z,15.67
2019-02-16T20:02:59.998Z,26.80
2019-02-16T20:08:11.747Z,14.03
2019-02-16T20:13:16.808Z,14.30
2019-02-16T20:18:21.873Z,15.03
2019-02-16T20:23:42.202Z,13.80
2019-02-16T20:28:56.003Z,16.37
2019-02-16T20:34:06.871Z,16.30
2019-02-16T20:39:14.493Z,14.00
2019-02-16T20:44:22.560Z,15.13
2019-02-16T20:49:39.424Z,15.27
2019-02-16T21:00:09.710Z,15.83
2019-02-16T21:05:29.792Z,18.10
2019-02-16T21:10:43.757Z,16.30
2019-02-16T21:15:48.824Z,17.60
2019-02-16T21:21:10.310Z,16.73
2019-02-16T21:26:36.928Z,16.80
2019-02-16T21:31:54.467Z,14.43
2019-02-16T21:37:05.474Z,14.90
2019-02-16T21:42:19.793Z,16.77
2019-02-16T21:52:53.256Z,18.40
2019-02-16T21:58:08.330Z,20.60
2019-02-16T22:08:47.017Z,17.60
2019-02-16T22:13:50.444Z,19.40
2019-02-16T22:18:53.864Z,17.93
2019-02-16T22:23:57.277Z,19.70
2019-02-16T22:29:00.741Z,18.37
2019-02-16T22:34:04.238Z,19.80
2019-02-16T22:39:07.676Z,18.67
2019-02-16T22:44:11.109Z,18.20
2019-02-16T22:49:14.542Z,19.23
2019-02-16T22:54:17.975Z,18.47
2019-02-16T22:59:21.401Z,19.60
2019-02-16T23:04:24.903Z,18.73
2019-02-16T23:09:28.881Z,19.10
2019-02-16T23:14:32.321Z,19.23
2019-02-16T23:19:35.741Z,18.60
2019-02-16T23:24:39.171Z,19.17
2019-02-16T23:29:42.591Z,21.37
2019-02-16T23:34:46.029Z,19.80
2019-02-16T23:39:49.473Z,20.00
2019-02-16T23:44:52.897Z,20.07
2019-02-16T23:49:56.317Z,20.33
2019-02-16T23:54:59.738Z,22.53
